TimeCDT,TemperatureF,Dew PointF,Humidity,Sea Level PressureIn,VisibilityMPH,Wind Direction,Wind SpeedMPH,Gust SpeedMPH,PrecipitationIn,Events,Conditions,WindDirDegrees,DateUTC
12:15 AM,44.6,26.6,49,30.00,10.0,South,11.5,17.3,N/A,,Clear,190,2012-10-11 05:15:00
12:35 AM,44.6,26.6,49,29.99,10.0,South,10.4,18.4,N/A,,Scattered Clouds,190,2012-10-11 05:35:00
12:55 AM,44.6,26.6,49,29.98,10.0,South,8.1,19.6,N/A,,Scattered Clouds,190,2012-10-11 05:55:00
1:15 AM,44.6,26.6,49,29.97,10.0,SSW,6.9,-,N/A,,Scattered Clouds,200,2012-10-11 06:15:00
1:35 AM,44.6,26.6,49,29.96,10.0,South,9.2,-,N/A,,Scattered Clouds,190,2012-10-11 06:35:00
1:55 AM,44.6,26.6,49,29.95,10.0,SW,8.1,16.1,N/A,,Clear,220,2012-10-11 06:55:00
2:15 AM,44.6,26.6,49,29.94,10.0,SSW,8.1,17.3,N/A,,Clear,210,2012-10-11 07:15:00
2:55 AM,44.6,26.6,49,29.93,10.0,South,6.9,-,N/A,,Clear,190,2012-10-11 07:55:00
3:15 AM,44.6,26.6,49,29.93,10.0,South,5.8,-,N/A,,Clear,190,2012-10-11 08:15:00
3:35 AM,44.6,26.6,49,29.92,10.0,South,4.6,-,N/A,,Clear,190,2012-10-11 08:35:00
3:55 AM,42.8,28.4,57,-9999,10.0,South,6.9,-,N/A,,Clear,180,2012-10-11 08:55:00
4:15 AM,44.6,28.4,53,29.90,10.0,SSW,9.2,-,N/A,,Clear,200,2012-10-11 09:15:00
4:35 AM,46.4,28.4,50,29.90,10.0,SSW,8.1,-,N/A,,Clear,210,2012-10-11 09:35:00
4:55 AM,46.4,28.4,50,29.91,10.0,SSW,8.1,-,N/A,,Clear,210,2012-10-11 09:55:00
5:15 AM,50.0,28.4,43,29.92,10.0,SW,6.9,17.3,N/A,,Clear,230,2012-10-11 10:15:00
5:35 AM,50.0,28.4,43,29.92,10.0,SW,5.8,-,N/A,,Clear,220,2012-10-11 10:35:00
5:55 AM,50.0,28.4,43,29.92,10.0,SW,6.9,-,N/A,,Clear,220,2012-10-11 10:55:00
6:15 AM,50.0,28.4,43,29.92,10.0,SSW,6.9,-,N/A,,Clear,210,2012-10-11 11:15:00
6:35 AM,50.0,28.4,43,29.92,10.0,SW,5.8,-,N/A,,Clear,230,2012-10-11 11:35:00
6:55 AM,50.0,28.4,43,29.92,10.0,SSW,8.1,-,N/A,,Clear,210,2012-10-11 11:55:00
7:15 AM,50.0,30.2,47,29.92,10.0,WSW,5.8,-,N/A,,Clear,240,2012-10-11 12:15:00
7:35 AM,50.0,30.2,47,29.93,10.0,WSW,6.9,-,N/A,,Clear,250,2012-10-11 12:35:00
7:55 AM,50.0,30.2,47,29.94,10.0,WSW,6.9,-,N/A,,Clear,250,2012-10-11 12:55:00
8:15 AM,50.0,30.2,47,29.95,10.0,WSW,6.9,-,N/A,,Clear,250,2012-10-11 13:15:00
8:35 AM,50.0,30.2,47,29.96,10.0,WSW,6.9,-,N/A,,Clear,250,2012-10-11 13:35:00
8:55 AM,50.0,30.2,47,29.97,10.0,WSW,9.2,-,N/A,,Clear,250,2012-10-11 13:55:00
9:15 AM,51.8,32.0,47,29.97,10.0,WSW,8.1,-,N/A,,Clear,250,2012-10-11 14:15:00
9:35 AM,51.8,32.0,47,29.98,10.0,WSW,6.9,-,N/A,,Clear,250,2012-10-11 14:35:00
9:55 AM,51.8,32.0,47,29.98,10.0,West,8.1,-,N/A,,Clear,260,2012-10-11 14:55:00
10:15 AM,51.8,32.0,47,30.00,10.0,West,11.5,18.4,N/A,,Clear,280,2012-10-11 15:15:00
10:35 AM,51.8,32.0,47,30.03,10.0,NW,11.5,-,N/A,,Scattered Clouds,320,2012-10-11 15:35:00
10:55 AM,51.8,32.0,47,30.04,10.0,NW,13.8,19.6,N/A,,Scattered Clouds,320,2012-10-11 15:55:00
11:15 AM,50.0,32.0,50,30.05,10.0,NNW,13.8,18.4,N/A,,Clear,330,2012-10-11 16:15:00
11:35 AM,50.0,32.0,50,30.06,10.0,NW,11.5,18.4,N/A,,Clear,320,2012-10-11 16:35:00
11:55 AM,48.2,32.0,54,30.07,10.0,NNW,9.2,16.1,N/A,,Clear,340,2012-10-11 16:55:00
12:15 PM,50.0,32.0,50,30.08,10.0,NNW,10.4,-,N/A,,Clear,340,2012-10-11 17:15:00
12:55 PM,50.0,32.0,50,30.11,10.0,NW,12.7,18.4,N/A,,Scattered Clouds,310,2012-10-11 17:55:00
1:15 PM,46.4,32.0,57,30.11,10.0,NNW,8.1,18.4,N/A,,Scattered Clouds,330,2012-10-11 18:15:00
1:35 PM,46.4,32.0,57,30.11,10.0,WNW,11.5,-,N/A,,Clear,300,2012-10-11 18:35:00
1:55 PM,46.4,32.0,57,30.12,10.0,NNW,9.2,17.3,N/A,,Scattered Clouds,330,2012-10-11 18:55:00
2:15 PM,46.4,32.0,57,30.12,10.0,NW,10.4,-,N/A,,Scattered Clouds,310,2012-10-11 19:15:00
2:35 PM,46.4,30.2,53,30.12,10.0,NW,6.9,-,N/A,,Clear,310,2012-10-11 19:35:00
2:55 PM,48.2,28.4,46,30.12,10.0,WNW,10.4,-,N/A,,Clear,300,2012-10-11 19:55:00
3:15 PM,50.0,26.6,40,30.13,10.0,NNW,8.1,16.1,N/A,,Clear,330,2012-10-11 20:15:00
3:35 PM,50.0,24.8,37,30.13,10.0,NNW,11.5,21.9,N/A,,Clear,340,2012-10-11 20:35:00
3:55 PM,50.0,24.8,37,30.13,10.0,WNW,9.2,17.3,N/A,,Clear,300,2012-10-11 20:55:00
4:15 PM,50.0,26.6,40,30.14,10.0,NW,5.8,-,N/A,,Scattered Clouds,310,2012-10-11 21:15:00
4:35 PM,50.0,23.0,35,30.14,10.0,NW,11.5,-,N/A,,Clear,310,2012-10-11 21:35:00
4:55 PM,50.0,21.2,32,30.15,10.0,NNW,11.5,16.1,N/A,,Clear,330,2012-10-11 21:55:00
5:15 PM,48.2,21.2,34,30.16,10.0,NW,11.5,19.6,N/A,,Clear,320,2012-10-11 22:15:00
5:35 PM,48.2,21.2,34,30.17,10.0,NW,5.8,-,N/A,,Clear,310,2012-10-11 22:35:00
5:55 PM,46.4,21.2,37,30.17,10.0,WNW,8.1,-,N/A,,Clear,300,2012-10-11 22:55:00
6:35 PM,46.4,21.2,37,30.19,10.0,West,5.8,-,N/A,,Clear,280,2012-10-11 23:35:00
6:55 PM,44.6,21.2,39,30.21,10.0,WNW,6.9,-,N/A,,Clear,300,2012-10-11 23:55:00
7:15 PM,44.6,17.6,34,30.21,10.0,NW,4.6,-,N/A,,Clear,320,2012-10-12 00:15:00
7:35 PM,44.6,15.8,31,30.22,10.0,NNW,4.6,-,N/A,,Clear,330,2012-10-12 00:35:00
8:15 PM,42.8,14.0,31,30.25,10.0,North,5.8,-,N/A,,Clear,350,2012-10-12 01:15:00
8:35 PM,41.0,15.8,36,30.26,10.0,NNW,4.6,-,N/A,,Clear,340,2012-10-12 01:35:00
8:55 PM,41.0,17.6,39,30.27,10.0,NNW,5.8,-,N/A,,Clear,330,2012-10-12 01:55:00
9:15 PM,37.4,17.6,45,30.28,10.0,NNW,5.8,-,N/A,,Clear,340,2012-10-12 02:15:00
9:55 PM,35.6,19.4,52,30.30,10.0,North,3.5,-,N/A,,Clear,360,2012-10-12 02:55:00
10:55 PM,32.0,21.2,64,30.33,10.0,Calm,Calm,-,N/A,,Clear,0,2012-10-12 03:55:00
11:15 PM,30.2,21.2,69,30.34,10.0,Calm,Calm,-,N/A,,Clear,0,2012-10-12 04:15:00
11:35 PM,30.2,21.2,69,30.35,10.0,Calm,Calm,-,N/A,,Clear,0,2012-10-12 04:35:00
11:55 PM,28.4,21.2,74,30.36,10.0,Calm,Calm,-,N/A,,Clear,0,2012-10-12 04:55:00